createdAt,value
2022-12-25T00:01:08.554Z,90.68
2022-12-25T00:03:38.076Z,90.99
2022-12-25T00:06:07.662Z,91.09
2022-12-25T00:08:37.585Z,91.18
2022-12-25T00:11:08.312Z,91.12
2022-12-25T00:13:37.206Z,91.01
2022-12-25T00:16:09.327Z,90.87
2022-12-25T00:18:37.844Z,91.07
2022-12-25T00:21:08.116Z,91.42
2022-12-25T00:23:36.960Z,91.02
2022-12-25T00:26:06.605Z,90.61
2022-12-25T00:28:35.897Z,90.58
2022-12-25T00:31:11.246Z,90.93
2022-12-25T00:33:41.859Z,91.01
2022-12-25T00:36:12.234Z,90.45
2022-12-25T00:38:41.732Z,89.96
2022-12-25T00:41:12.964Z,90.10
2022-12-25T00:43:42.076Z,89.95
2022-12-25T00:46:13.910Z,90.19
2022-12-25T00:48:45.253Z,89.52
2022-12-25T00:51:13.785Z,89.03
2022-12-25T00:53:42.474Z,88.59
2022-12-25T00:56:11.148Z,89.42
2022-12-25T00:58:39.639Z,89.63
2022-12-25T01:01:08.426Z,89.89
2022-12-25T01:03:38.581Z,89.68
2022-12-25T01:06:10.941Z,90.58
2022-12-25T01:09:01.179Z,89.92
2022-12-25T01:11:29.453Z,90.73
2022-12-25T01:13:58.047Z,90.39
2022-12-25T01:16:26.859Z,90.13
2022-12-25T01:18:57.610Z,90.47
2022-12-25T01:21:26.180Z,89.76
2022-12-25T01:23:55.404Z,89.11
2022-12-25T01:26:26.206Z,89.44
2022-12-25T01:28:54.937Z,89.97
2022-12-25T01:31:25.060Z,88.99
2022-12-25T01:33:54.081Z,89.55
2022-12-25T01:36:26.228Z,89.61
2022-12-25T01:38:55.495Z,89.78
2022-12-25T01:41:26.269Z,89.40
2022-12-25T01:44:01.312Z,89.67
2022-12-25T01:46:30.390Z,89.85
2022-12-25T01:49:03.146Z,90.16
2022-12-25T01:51:36.911Z,90.40
2022-12-25T01:54:09.876Z,89.81
2022-12-25T01:56:41.003Z,89.97
2022-12-25T01:59:10.654Z,89.00
2022-12-25T02:01:39.377Z,88.87
2022-12-25T02:04:14.273Z,88.52
2022-12-25T02:06:44.346Z,89.67
2022-12-25T02:09:12.874Z,89.58
2022-12-25T02:11:59.485Z,89.26
2022-12-25T02:14:33.013Z,89.02
2022-12-25T02:17:12.421Z,89.50
2022-12-25T02:20:08.845Z,90.38
2022-12-25T02:22:52.786Z,90.17
2022-12-25T02:25:38.675Z,88.73
2022-12-25T02:28:22.733Z,89.19
2022-12-25T02:30:55.354Z,89.03
2022-12-25T02:33:49.170Z,89.56
2022-12-25T02:36:25.596Z,88.95
2022-12-25T02:39:18.133Z,89.42
2022-12-25T02:41:50.156Z,89.33
2022-12-25T02:44:43.481Z,89.59
2022-12-25T02:47:29.887Z,90.50
2022-12-25T02:50:17.394Z,90.38
2022-12-25T02:53:05.487Z,90.09
2022-12-25T02:55:54.960Z,89.93
2022-12-25T02:58:44.631Z,90.61
2022-12-25T03:01:36.224Z,90.35
2022-12-25T03:04:27.070Z,90.28
2022-12-25T03:07:07.275Z,89.89
2022-12-25T03:09:57.060Z,90.58
2022-12-25T03:12:41.647Z,89.96
2022-12-25T03:15:31.157Z,90.38
2022-12-25T03:18:06.942Z,90.11
2022-12-25T03:20:53.890Z,89.85
2022-12-25T03:23:45.180Z,89.92
2022-12-25T03:26:31.373Z,90.00
2022-12-25T03:29:00.059Z,89.77
2022-12-25T03:31:39.897Z,89.48
2022-12-25T03:34:41.548Z,89.30
2022-12-25T03:37:38.859Z,88.81
2022-12-25T03:40:35.031Z,89.35
2022-12-25T03:43:30.543Z,89.67
2022-12-25T03:46:21.564Z,89.57
2022-12-25T03:49:15.165Z,88.57
2022-12-25T03:52:05.232Z,89.46
2022-12-25T03:54:53.486Z,88.80
2022-12-25T03:57:39.443Z,88.63
2022-12-25T04:00:26.723Z,88.64
2022-12-25T04:03:12.863Z,88.86
2022-12-25T04:05:59.163Z,88.67
2022-12-25T04:08:46.554Z,88.36
2022-12-25T04:11:33.172Z,88.94
2022-12-25T04:14:19.280Z,89.10
2022-12-25T04:17:05.219Z,88.75
2022-12-25T04:19:51.313Z,88.75
2022-12-25T04:22:39.695Z,88.37
2022-12-25T04:25:27.887Z,88.20
2022-12-25T04:28:19.908Z,88.79
2022-12-25T04:31:05.844Z,88.36
2022-12-25T04:33:52.128Z,88.64
2022-12-25T04:36:20.976Z,88.28
2022-12-25T04:38:49.515Z,88.28
2022-12-25T04:41:19.754Z,87.67
2022-12-25T04:43:48.245Z,87.82
2022-12-25T04:46:16.833Z,88.63
2022-12-25T04:48:45.529Z,88.42
2022-12-25T04:51:16.104Z,87.99
2022-12-25T04:53:45.382Z,88.39
2022-12-25T04:56:14.306Z,88.56
2022-12-25T04:58:45.577Z,89.08
2022-12-25T05:01:14.923Z,89.06
2022-12-25T05:03:43.791Z,89.39
2022-12-25T05:06:12.795Z,88.94
2022-12-25T05:08:41.414Z,89.12
2022-12-25T05:11:12.236Z,89.45
2022-12-25T05:13:41.886Z,88.92
2022-12-25T05:16:14.832Z,89.25
2022-12-25T05:18:43.936Z,89.36
2022-12-25T05:21:13.094Z,89.02
2022-12-25T05:23:48.237Z,89.27
2022-12-25T05:26:18.492Z,89.45
2022-12-25T05:28:47.125Z,89.37
2022-12-25T05:31:17.630Z,88.67
2022-12-25T05:33:46.396Z,89.06
2022-12-25T05:36:15.585Z,88.95
2022-12-25T05:38:44.449Z,89.38
2022-12-25T05:41:13.126Z,89.44
2022-12-25T05:43:41.700Z,89.08
2022-12-25T05:46:13.101Z,89.38
2022-12-25T05:48:43.087Z,88.90
2022-12-25T05:51:13.925Z,88.47
2022-12-25T05:53:43.592Z,88.53
2022-12-25T05:56:15.835Z,88.38
2022-12-25T05:58:44.453Z,88.77
2022-12-25T06:01:15.300Z,88.98
2022-12-25T06:03:45.477Z,88.94
2022-12-25T06:06:14.450Z,88.76
2022-12-25T06:08:43.131Z,88.62
2022-12-25T06:11:13.685Z,88.92
2022-12-25T06:13:42.650Z,88.70
2022-12-25T06:16:13.373Z,88.50
2022-12-25T06:18:45.472Z,88.87
2022-12-25T06:21:16.699Z,88.78
2022-12-25T06:23:45.633Z,88.26
2022-12-25T06:26:16.167Z,88.12
2022-12-25T06:28:45.320Z,88.93
2022-12-25T06:31:16.335Z,88.25
2022-12-25T06:33:45.081Z,89.04
2022-12-25T06:36:16.989Z,88.77
2022-12-25T06:38:46.243Z,88.86
2022-12-25T06:41:17.942Z,88.31
2022-12-25T06:43:49.187Z,88.60
2022-12-25T06:46:18.502Z,88.21
2022-12-25T06:48:49.355Z,88.24
2022-12-25T06:51:21.866Z,88.48
2022-12-25T06:53:51.997Z,87.84
2022-12-25T06:56:24.142Z,88.42
2022-12-25T06:58:55.155Z,88.14
2022-12-25T07:01:26.538Z,88.29
2022-12-25T07:03:58.816Z,88.22
2022-12-25T07:06:28.735Z,87.84
2022-12-25T07:08:57.037Z,87.85
2022-12-25T07:11:26.263Z,88.16
2022-12-25T07:13:54.950Z,88.09
2022-12-25T07:16:23.812Z,87.79
2022-12-25T07:18:52.301Z,87.84
2022-12-25T07:21:22.056Z,87.40
2022-12-25T07:23:51.880Z,87.76
2022-12-25T07:26:20.920Z,87.54
2022-12-25T07:28:49.754Z,87.87
2022-12-25T07:31:19.693Z,88.10
2022-12-25T07:33:48.425Z,87.64
2022-12-25T07:36:16.935Z,88.05
2022-12-25T07:38:48.856Z,87.95
2022-12-25T07:41:19.126Z,87.53
2022-12-25T07:43:51.067Z,86.52
2022-12-25T07:46:21.135Z,87.47
2022-12-25T07:48:50.191Z,87.36
2022-12-25T07:51:18.702Z,87.13
2022-12-25T07:53:47.600Z,87.00
2022-12-25T07:56:19.661Z,87.00
2022-12-25T07:58:49.000Z,86.68
2022-12-25T08:01:20.201Z,86.62
2022-12-25T08:03:52.625Z,87.01
2022-12-25T08:06:22.707Z,86.39
2022-12-25T08:08:51.173Z,86.02
2022-12-25T08:11:21.071Z,86.27
2022-12-25T08:13:49.407Z,86.62
2022-12-25T08:16:18.199Z,86.04
2022-12-25T08:18:46.786Z,86.77
2022-12-25T08:21:16.333Z,86.39
2022-12-25T08:23:46.884Z,86.41
2022-12-25T08:26:18.155Z,86.00
2022-12-25T08:28:49.348Z,85.94
2022-12-25T08:31:19.637Z,86.29
2022-12-25T08:33:49.660Z,86.03
2022-12-25T08:36:18.647Z,85.83
2022-12-25T08:38:47.542Z,85.97
2022-12-25T08:41:17.151Z,85.30
2022-12-25T08:43:46.253Z,85.26
2022-12-25T08:46:16.553Z,84.52
2022-12-25T08:48:46.275Z,84.34
2022-12-25T08:51:16.679Z,84.95
2022-12-25T08:53:45.755Z,85.00
2022-12-25T08:56:15.860Z,85.39
2022-12-25T08:58:44.899Z,84.82
2022-12-25T09:01:14.207Z,84.47
2022-12-25T09:03:44.310Z,83.74
2022-12-25T09:06:14.986Z,83.35
2022-12-25T09:08:49.008Z,84.22
2022-12-25T09:11:20.018Z,83.58
2022-12-25T09:13:49.424Z,83.46
2022-12-25T09:16:22.935Z,82.79
2022-12-25T09:18:52.807Z,82.87
2022-12-25T09:21:21.318Z,82.24
2022-12-25T09:23:50.031Z,82.32
2022-12-25T09:26:19.851Z,82.02
2022-12-25T09:28:51.987Z,81.34
2022-12-25T09:31:22.263Z,81.21
2022-12-25T09:33:52.313Z,81.10
2022-12-25T09:36:23.226Z,80.75
2022-12-25T09:38:54.182Z,80.20
2022-12-25T09:41:30.665Z,80.52
2022-12-25T09:44:03.919Z,80.44
2022-12-25T09:46:40.190Z,80.44
2022-12-25T09:49:20.085Z,79.67
2022-12-25T09:51:54.238Z,79.17
2022-12-25T09:54:39.823Z,78.18
2022-12-25T09:57:11.777Z,77.76
2022-12-25T09:59:40.812Z,77.66
2022-12-25T10:02:41.326Z,76.63
2022-12-25T10:05:45.462Z,76.49
2022-12-25T10:08:23.151Z,75.24
2022-12-25T10:11:00.932Z,75.78
2022-12-25T10:13:51.708Z,75.40
2022-12-25T10:16:31.130Z,74.64
2022-12-25T10:19:22.916Z,73.89
2022-12-25T10:21:57.740Z,73.91
2022-12-25T10:24:36.109Z,73.53
2022-12-25T10:27:14.347Z,73.25
2022-12-25T10:29:45.487Z,73.15
2022-12-25T10:32:14.001Z,73.20
2022-12-25T10:34:43.574Z,71.93
2022-12-25T10:37:14.043Z,71.03
2022-12-25T10:39:46.604Z,71.00
2022-12-25T10:42:28.108Z,70.48
2022-12-25T10:44:58.566Z,70.11
2022-12-25T10:47:31.405Z,69.86
2022-12-25T10:50:01.281Z,70.31
2022-12-25T10:52:31.049Z,69.74
2022-12-25T10:54:59.638Z,69.14
2022-12-25T10:57:31.016Z,69.86
2022-12-25T11:00:00.416Z,68.83
2022-12-25T11:02:30.214Z,68.84
2022-12-25T11:05:04.488Z,68.21
2022-12-25T11:07:54.237Z,68.56
2022-12-25T11:10:26.052Z,68.65
2022-12-25T11:12:55.053Z,68.34
2022-12-25T11:15:37.719Z,68.89
2022-12-25T11:18:20.010Z,68.27
2022-12-25T11:20:53.162Z,68.75
2022-12-25T11:23:24.787Z,69.06
2022-12-25T11:25:58.218Z,69.87
2022-12-25T11:28:28.042Z,70.19
2022-12-25T11:31:02.850Z,70.44
2022-12-25T11:33:36.482Z,71.23
2022-12-25T11:36:13.744Z,69.37
2022-12-25T11:38:43.893Z,69.44
2022-12-25T11:41:14.983Z,67.15
2022-12-25T11:43:49.495Z,65.83
2022-12-25T11:46:23.070Z,65.57
2022-12-25T11:48:56.208Z,63.44
2022-12-25T11:51:28.747Z,61.56
2022-12-25T11:54:05.013Z,62.52
2022-12-25T11:56:33.899Z,62.32
2022-12-25T11:59:07.525Z,61.45
2022-12-25T12:01:45.024Z,61.49
2022-12-25T12:04:23.118Z,59.11
2022-12-25T12:06:59.708Z,59.00
2022-12-25T12:09:42.065Z,57.85
2022-12-25T12:12:18.923Z,58.51
2022-12-25T12:14:57.845Z,59.53
2022-12-25T12:17:26.328Z,59.53
2022-12-25T12:19:54.901Z,61.18
2022-12-25T12:22:26.596Z,62.45
2022-12-25T12:25:01.444Z,61.65
2022-12-25T12:27:36.085Z,60.51
2022-12-25T12:30:07.152Z,60.11
2022-12-25T12:32:40.206Z,58.60
2022-12-25T12:35:18.979Z,58.40
2022-12-25T12:37:51.717Z,59.76
2022-12-25T12:40:34.768Z,60.73
2022-12-25T12:43:03.939Z,58.35
2022-12-25T12:45:35.801Z,58.19
2022-12-25T12:48:15.607Z,58.34
2022-12-25T12:50:44.419Z,58.34
2022-12-25T12:53:29.387Z,57.70
2022-12-25T12:56:10.582Z,57.04
2022-12-25T12:58:45.090Z,57.68
2022-12-25T13:01:36.886Z,54.42
2022-12-25T13:04:18.607Z,54.91
2022-12-25T13:06:54.076Z,55.59
2022-12-25T13:09:36.982Z,56.63
2022-12-25T13:12:08.696Z,56.17
2022-12-25T13:14:38.214Z,55.39
2022-12-25T13:17:07.874Z,53.03
2022-12-25T13:19:38.236Z,53.18
2022-12-25T13:22:07.714Z,53.85
2022-12-25T13:24:39.658Z,55.14
2022-12-25T13:27:23.830Z,55.42
2022-12-25T13:29:52.408Z,58.49
2022-12-25T13:32:25.405Z,54.35
2022-12-25T13:34:54.925Z,55.36
2022-12-25T13:37:27.518Z,55.48
2022-12-25T13:39:57.838Z,56.29
2022-12-25T13:42:31.106Z,56.81
2022-12-25T13:45:01.640Z,56.44
2022-12-25T13:47:33.491Z,57.16
2022-12-25T13:50:14.382Z,58.38
2022-12-25T13:52:42.980Z,58.32
2022-12-25T13:55:14.623Z,59.79
2022-12-25T13:57:47.115Z,57.31
2022-12-25T14:00:20.653Z,58.28
2022-12-25T14:02:50.055Z,57.86
2022-12-25T14:05:28.147Z,58.66
2022-12-25T14:07:57.660Z,57.38
2022-12-25T14:10:29.884Z,59.14
2022-12-25T14:13:03.604Z,58.21
2022-12-25T14:15:34.159Z,60.49
2022-12-25T14:18:03.261Z,59.86
2022-12-25T14:20:37.192Z,59.99
2022-12-25T14:23:06.209Z,61.62
2022-12-25T14:25:38.361Z,61.70
2022-12-25T14:28:11.337Z,60.87
2022-12-25T14:30:43.506Z,61.29
2022-12-25T14:33:16.346Z,60.72
2022-12-25T14:35:45.549Z,59.76
2022-12-25T14:38:21.763Z,61.24
2022-12-25T14:40:59.768Z,62.09
2022-12-25T14:43:31.475Z,62.53
2022-12-25T14:46:02.697Z,63.29
2022-12-25T14:48:33.214Z,59.36
2022-12-25T14:51:04.297Z,59.07
2022-12-25T14:53:37.885Z,54.96
2022-12-25T14:56:09.496Z,55.27
2022-12-25T14:58:44.367Z,56.43
2022-12-25T15:01:22.464Z,58.47
2022-12-25T15:03:51.239Z,60.92
2022-12-25T15:06:22.427Z,59.96
2022-12-25T15:08:58.571Z,60.55
2022-12-25T15:11:27.329Z,62.78
2022-12-25T15:13:57.513Z,63.47
2022-12-25T15:16:27.934Z,63.01
2022-12-25T15:18:56.994Z,63.46
2022-12-25T15:21:28.347Z,63.40
2022-12-25T15:23:58.633Z,64.47
2022-12-25T15:26:28.622Z,63.98
2022-12-25T15:28:59.113Z,63.89
2022-12-25T15:31:29.904Z,65.17
2022-12-25T15:34:00.638Z,61.60
2022-12-25T15:36:29.616Z,61.09
2022-12-25T15:38:58.818Z,60.30
2022-12-25T15:41:48.557Z,59.39
2022-12-25T15:44:19.563Z,61.35
2022-12-25T15:46:48.363Z,61.63
2022-12-25T15:49:17.754Z,61.77
2022-12-25T15:51:47.136Z,61.37
2022-12-25T15:54:15.651Z,63.41
2022-12-25T15:56:47.157Z,63.48
2022-12-25T15:59:20.303Z,64.23
2022-12-25T16:01:52.333Z,64.38
2022-12-25T16:04:20.920Z,63.43
2022-12-25T16:06:50.077Z,64.19
2022-12-25T16:09:20.944Z,64.45
2022-12-25T16:11:50.595Z,65.71
2022-12-25T16:14:19.479Z,65.12
2022-12-25T16:16:48.128Z,63.07
2022-12-25T16:19:18.107Z,60.92
2022-12-25T16:21:47.095Z,61.00
2022-12-25T16:24:16.167Z,59.82
2022-12-25T16:26:45.001Z,60.91
2022-12-25T16:29:13.723Z,60.55
2022-12-25T16:31:42.448Z,61.60
2022-12-25T16:34:11.390Z,62.57
2022-12-25T16:36:41.591Z,61.81
2022-12-25T16:39:10.173Z,61.35
2022-12-25T16:41:38.699Z,60.90
2022-12-25T16:44:10.074Z,60.54
2022-12-25T16:46:40.817Z,60.20
2022-12-25T16:49:09.686Z,60.18
2022-12-25T16:51:38.312Z,60.74
2022-12-25T16:54:08.422Z,60.74
2022-12-25T16:56:37.158Z,61.58
2022-12-25T16:59:05.668Z,63.93
2022-12-25T17:01:34.341Z,63.53
2022-12-25T17:04:03.342Z,65.45
2022-12-25T17:06:32.114Z,65.74
2022-12-25T17:09:02.816Z,68.07
2022-12-25T17:11:33.153Z,67.09
2022-12-25T17:14:03.688Z,68.03
2022-12-25T17:16:34.384Z,68.21
2022-12-25T17:19:05.199Z,68.30
2022-12-25T17:21:34.277Z,69.19
2022-12-25T17:24:04.485Z,69.30
2022-12-25T17:26:34.740Z,70.22
2022-12-25T17:29:03.329Z,70.03
2022-12-25T17:31:31.861Z,70.65
2022-12-25T17:34:01.863Z,70.16
2022-12-25T17:36:31.031Z,69.11
2022-12-25T17:39:00.112Z,67.54
2022-12-25T17:41:28.985Z,64.58
2022-12-25T17:43:59.113Z,64.39
2022-12-25T17:46:29.671Z,63.21
2022-12-25T17:48:59.955Z,63.15
2022-12-25T17:51:29.958Z,61.78
2022-12-25T17:54:02.931Z,60.22
2022-12-25T17:56:32.302Z,58.52
2022-12-25T17:59:06.531Z,58.57
2022-12-25T18:01:37.602Z,58.60
2022-12-25T18:04:07.198Z,58.39
2022-12-25T18:06:37.190Z,57.68
2022-12-25T18:09:06.553Z,59.23
2022-12-25T18:11:36.789Z,58.89
2022-12-25T18:14:08.482Z,57.51
2022-12-25T18:16:39.681Z,57.99
2022-12-25T18:19:09.192Z,58.11
2022-12-25T18:21:38.289Z,57.60
2022-12-25T18:24:08.304Z,58.31
2022-12-25T18:26:36.907Z,59.01
2022-12-25T18:29:07.627Z,59.34
2022-12-25T18:31:36.976Z,60.16
2022-12-25T18:34:05.546Z,59.83
2022-12-25T18:36:34.073Z,60.55
2022-12-25T18:39:02.641Z,60.06
2022-12-25T18:41:31.274Z,59.51
2022-12-25T18:44:00.968Z,58.95
2022-12-25T18:46:31.305Z,60.55
2022-12-25T18:48:59.832Z,60.68
2022-12-25T18:51:34.887Z,62.66
2022-12-25T18:54:05.337Z,63.20
2022-12-25T18:56:34.001Z,63.93
2022-12-25T18:59:02.514Z,65.47
2022-12-25T19:01:32.610Z,67.00
2022-12-25T19:04:05.442Z,67.15
2022-12-25T19:06:34.586Z,67.32
2022-12-25T19:09:09.042Z,68.48
2022-12-25T19:11:45.605Z,68.66
2022-12-25T19:14:15.957Z,69.93
2022-12-25T19:16:45.826Z,70.44
2022-12-25T19:19:14.537Z,71.23
2022-12-25T19:21:43.299Z,71.57
2022-12-25T19:24:11.838Z,71.33
2022-12-25T19:26:40.378Z,72.14
2022-12-25T19:29:08.953Z,72.94
2022-12-25T19:31:38.278Z,73.50
2022-12-25T19:34:08.759Z,73.84
2022-12-25T19:36:38.694Z,74.30
2022-12-25T19:39:08.157Z,74.49
2022-12-25T19:41:36.707Z,74.81
2022-12-25T19:44:06.355Z,75.72
2022-12-25T19:46:38.291Z,75.01
2022-12-25T19:49:11.706Z,75.28
2022-12-25T19:51:42.040Z,76.43
2022-12-25T19:54:14.336Z,76.70
2022-12-25T19:56:43.849Z,76.14
2022-12-25T19:59:14.449Z,76.87
2022-12-25T20:01:43.583Z,77.23
2022-12-25T20:04:13.636Z,77.66
2022-12-25T20:06:42.670Z,77.52
2022-12-25T20:09:13.839Z,77.97
2022-12-25T20:11:43.946Z,77.91
2022-12-25T20:14:14.067Z,78.57
2022-12-25T20:16:43.440Z,78.52
2022-12-25T20:19:14.250Z,77.88
2022-12-25T20:21:43.045Z,79.02
2022-12-25T20:24:11.613Z,78.99
2022-12-25T20:26:40.417Z,78.76
2022-12-25T20:29:09.032Z,78.42
2022-12-25T20:31:37.679Z,79.15
2022-12-25T20:34:10.160Z,80.29
2022-12-25T20:36:40.186Z,80.26
2022-12-25T20:39:12.181Z,80.28
2022-12-25T20:41:41.321Z,80.73
2022-12-25T20:44:10.775Z,80.16
2022-12-25T20:46:39.347Z,81.00
2022-12-25T20:49:08.127Z,80.52
2022-12-25T20:51:36.800Z,80.95
2022-12-25T20:54:09.124Z,80.70
2022-12-25T20:56:38.214Z,79.93
2022-12-25T20:59:07.049Z,80.29
2022-12-25T21:01:49.767Z,79.03
2022-12-25T21:04:18.733Z,79.98
2022-12-25T21:06:49.319Z,80.19
2022-12-25T21:09:19.658Z,79.89
2022-12-25T21:11:53.518Z,80.36
2022-12-25T21:14:26.144Z,81.11
2022-12-25T21:16:59.076Z,80.90
2022-12-25T21:19:28.871Z,81.31
2022-12-25T21:21:58.457Z,81.46
2022-12-25T21:24:32.753Z,81.32
2022-12-25T21:27:06.381Z,80.91
2022-12-25T21:29:35.021Z,81.63
2022-12-25T21:32:20.929Z,80.96
2022-12-25T21:34:52.411Z,80.04
2022-12-25T21:37:20.838Z,79.59
2022-12-25T21:39:51.484Z,79.28
2022-12-25T21:42:20.141Z,78.35
2022-12-25T21:44:49.427Z,79.06
2022-12-25T21:47:18.045Z,78.35
2022-12-25T21:50:03.945Z,78.37
2022-12-25T21:52:32.679Z,78.35
2022-12-25T21:55:02.513Z,78.92
2022-12-25T21:57:30.955Z,78.96
2022-12-25T21:59:59.492Z,79.84
2022-12-25T22:02:28.200Z,80.26
2022-12-25T22:04:57.077Z,80.00
2022-12-25T22:07:24.883Z,80.08
2022-12-25T22:09:53.357Z,79.19
2022-12-25T22:12:40.533Z,79.20
2022-12-25T22:15:10.732Z,78.75
2022-12-25T22:17:58.393Z,78.52
2022-12-25T22:20:30.044Z,79.19
2022-12-25T22:22:58.667Z,79.05
2022-12-25T22:25:27.780Z,79.16
2022-12-25T22:27:58.354Z,79.36
2022-12-25T22:30:29.250Z,79.00
2022-12-25T22:32:58.266Z,79.33
2022-12-25T22:35:26.688Z,80.08
2022-12-25T22:37:55.906Z,79.47
2022-12-25T22:40:24.580Z,79.57
2022-12-25T22:42:54.616Z,79.78
2022-12-25T22:45:24.711Z,80.09
2022-12-25T22:47:53.278Z,80.53
2022-12-25T22:50:21.897Z,79.97
2022-12-25T22:52:50.560Z,80.54
2022-12-25T22:55:20.169Z,80.29
2022-12-25T22:57:49.339Z,80.04
2022-12-25T23:00:18.003Z,80.23
2022-12-25T23:02:48.117Z,80.19
2022-12-25T23:05:16.916Z,80.77
2022-12-25T23:07:45.750Z,80.65
2022-12-25T23:10:14.192Z,80.62
2022-12-25T23:13:00.398Z,80.71
2022-12-25T23:15:29.023Z,79.99
2022-12-25T23:18:16.467Z,79.33
2022-12-25T23:21:02.862Z,79.81
2022-12-25T23:23:49.039Z,78.98
2022-12-25T23:26:18.646Z,78.74
2022-12-25T23:29:04.428Z,78.71
2022-12-25T23:31:35.156Z,79.06
2022-12-25T23:34:05.792Z,78.80
2022-12-25T23:36:35.077Z,79.60
2022-12-25T23:39:09.721Z,79.03
2022-12-25T23:41:39.705Z,79.54
2022-12-25T23:44:09.584Z,80.00
2022-12-25T23:46:38.475Z,79.87
2022-12-25T23:49:08.998Z,80.36
2022-12-25T23:51:38.311Z,80.31
2022-12-25T23:54:07.814Z,80.74
2022-12-25T23:56:36.651Z,79.86
2022-12-25T23:59:06.054Z,80.29
